Terminal Aerodrome Forecast
Issued by NWS

Home | Current Version | Previous Version | Text Only | Print | Product List | Glossary On
Versions: 1 2 3 4 5 6 7 8 9 10 11 12 13 14 15 16 17 18 19 20 21 22 23 24 25 26 27 28 29
540
FTUS43 KDVN 200520
TAFBRL
TAF
KBRL 200520Z 2006/2106 13008KT P6SM SCT120
     FM201100 15012KT P6SM SCT120
     FM201500 18013G18KT P6SM SCT100
     FM201900 19015G22KT P6SM BKN090
     FM202100 20009KT P6SM BKN080=

USA.gov is the U.S. government's official web portal to all federal, state and local government web resources and services.